Little Valley, Nevada Weather observations

Data are for 10 minute period ending at time listed.
 Day   Time    Ave.   Ave.  Ave.  Vector   Max.   Total    Solar   
  of    of     Air    Rel.  Wind   Wind    Wind  Precip.   Rad.    
Year   Day     Temp.  Hum.  Speed  Dir.    Gust                    
2015   (PST)    F      %     mph   deg.    mph     in.     W/m2    
------------------------------------------------------------------- 
  57   14:00   45.0    37    4.0   126     13.0    6.29     733  
  57   15:00   45.0    35    5.0    99     13.0    6.29     632  
  57   16:00   46.0    34    4.0   102     12.0    6.29     487  
  57   17:00   39.0    45    3.0   260      7.0    6.29     250  
  57   18:00   31.0    59    0.0   206      4.0    6.29      18  
  57   19:00   27.0    70    0.0   355      3.0    6.29       2  
  57   20:00   26.0    71    2.0   190      4.0    6.29       0  
  57   21:00   29.0    69    2.0   168      6.0    6.29       0  
  57   22:00   27.0    69    1.0   123      4.0    6.29       0  
  57   23:00   27.0    71    1.0   212      4.0    6.29       0  
  58    0:00   29.0    72    3.0   223      9.0    6.29       0  
  58    1:00   39.0    52    6.0   204     17.0    6.29       0  
  58    2:00   39.0    61   11.0   190     22.0    6.29       0  
  58    3:00   38.0    63   10.0   163     24.0    6.29       0  
  58    4:00   37.0    61    7.0   164     23.0    6.29       0  
  58    5:00   36.0    62    7.0   151     16.0    6.29       0  
  58    6:00   36.0    66    5.0   154     14.0    6.29       0  
  58    7:00   35.0    66    8.0   183     16.0    6.29       0  
  58    8:00   36.0    62    6.0   221     23.0    6.29      37  
  58    9:00   39.0    56    7.0   275     15.0    6.29     279  
  58   10:00   39.0    53    6.0   264     14.0    6.29     426  
  58   11:00   38.0    67    7.0   202     21.0    6.29     439  
  58   12:00   36.0    65    9.0   249     25.0    6.30     426  
  58   13:00   38.0    52   12.0   242     26.0    6.30     418  

Return to Little Valley, Nevada graphs page.


Western Regional Climate Center,wrcc@dri.edu